sensor_id;sensor_type;location;lat;lon;timestamp;temperature;humidity
16532;DHT22;66872;63.142;14.482;2023-06-22T00:00:53;25.00;1.00
16532;DHT22;66872;63.142;14.482;2023-06-22T00:03:20;25.00;1.00
16532;DHT22;66872;63.142;14.482;2023-06-22T00:05:47;25.00;1.00
16532;DHT22;66872;63.142;14.482;2023-06-22T00:08:12;25.00;1.00
16532;DHT22;66872;63.142;14.482;2023-06-22T00:10:38;25.00;1.00
16532;DHT22;66872;63.142;14.482;2023-06-22T00:13:05;25.00;1.00
16532;DHT22;66872;63.142;14.482;2023-06-22T00:15:31;25.00;1.00
16532;DHT22;66872;63.142;14.482;2023-06-22T00:17:56;25.00;1.00
16532;DHT22;66872;63.142;14.482;2023-06-22T00:20:23;25.00;1.00
16532;DHT22;66872;63.142;14.482;2023-06-22T00:22:54;24.90;1.00
16532;DHT22;66872;63.142;14.482;2023-06-22T00:25:19;25.00;1.00
16532;DHT22;66872;63.142;14.482;2023-06-22T00:27:45;25.00;1.00
16532;DHT22;66872;63.142;14.482;2023-06-22T00:30:11;24.90;1.00
16532;DHT22;66872;63.142;14.482;2023-06-22T00:32:37;24.90;1.00
16532;DHT22;66872;63.142;14.482;2023-06-22T00:35:03;24.90;1.00
16532;DHT22;66872;63.142;14.482;2023-06-22T00:37:28;25.00;1.00
16532;DHT22;66872;63.142;14.482;2023-06-22T00:39:55;24.90;1.00
16532;DHT22;66872;63.142;14.482;2023-06-22T00:42:21;24.90;1.00
16532;DHT22;66872;63.142;14.482;2023-06-22T00:44:47;24.90;1.00
16532;DHT22;66872;63.142;14.482;2023-06-22T00:47:17;24.90;1.00
16532;DHT22;66872;63.142;14.482;2023-06-22T00:49:44;24.90;1.00
16532;DHT22;66872;63.142;14.482;2023-06-22T00:52:11;24.90;1.00
16532;DHT22;66872;63.142;14.482;2023-06-22T00:54:40;24.90;1.00
16532;DHT22;66872;63.142;14.482;2023-06-22T00:57:14;24.90;1.00
16532;DHT22;66872;63.142;14.482;2023-06-22T00:59:45;24.90;1.00
16532;DHT22;66872;63.142;14.482;2023-06-22T01:02:11;24.90;1.00
16532;DHT22;66872;63.142;14.482;2023-06-22T01:04:39;24.90;1.00
16532;DHT22;66872;63.142;14.482;2023-06-22T01:10:10;24.90;1.00
16532;DHT22;66872;63.142;14.482;2023-06-22T01:12:45;24.90;1.00
16532;DHT22;66872;63.142;14.482;2023-06-22T01:15:33;24.90;1.00
16532;DHT22;66872;63.142;14.482;2023-06-22T01:18:04;24.90;1.00
16532;DHT22;66872;63.142;14.482;2023-06-22T01:20:33;24.90;1.00
16532;DHT22;66872;63.142;14.482;2023-06-22T01:23:17;24.90;1.00
16532;DHT22;66872;63.142;14.482;2023-06-22T01:25:50;24.80;1.00
16532;DHT22;66872;63.142;14.482;2023-06-22T01:31:08;24.80;1.00
16532;DHT22;66872;63.142;14.482;2023-06-22T01:33:39;24.80;1.00
16532;DHT22;66872;63.142;14.482;2023-06-22T01:36:06;24.80;1.00
16532;DHT22;66872;63.142;14.482;2023-06-22T01:38:33;24.80;1.00
16532;DHT22;66872;63.142;14.482;2023-06-22T01:40:59;24.80;1.00
16532;DHT22;66872;63.142;14.482;2023-06-22T01:43:26;24.80;1.00
16532;DHT22;66872;63.142;14.482;2023-06-22T01:45:54;24.80;1.00
16532;DHT22;66872;63.142;14.482;2023-06-22T01:48:20;24.80;1.00
16532;DHT22;66872;63.142;14.482;2023-06-22T01:50:47;24.80;1.00
16532;DHT22;66872;63.142;14.482;2023-06-22T01:53:13;24.70;1.00
16532;DHT22;66872;63.142;14.482;2023-06-22T01:55:38;24.80;1.00
16532;DHT22;66872;63.142;14.482;2023-06-22T01:58:04;24.70;1.00
16532;DHT22;66872;63.142;14.482;2023-06-22T02:00:32;24.70;1.00
16532;DHT22;66872;63.142;14.482;2023-06-22T02:03:10;24.70;1.00
16532;DHT22;66872;63.142;14.482;2023-06-22T02:05:39;24.70;1.00
16532;DHT22;66872;63.142;14.482;2023-06-22T02:08:25;24.70;1.00
16532;DHT22;66872;63.142;14.482;2023-06-22T02:10:54;24.70;1.00
16532;DHT22;66872;63.142;14.482;2023-06-22T02:13:21;24.70;1.00
16532;DHT22;66872;63.142;14.482;2023-06-22T02:15:47;24.70;1.00
16532;DHT22;66872;63.142;14.482;2023-06-22T02:18:14;24.70;1.00
16532;DHT22;66872;63.142;14.482;2023-06-22T02:20:40;24.70;1.00
16532;DHT22;66872;63.142;14.482;2023-06-22T02:23:06;24.70;1.00
16532;DHT22;66872;63.142;14.482;2023-06-22T02:25:33;24.70;1.00
16532;DHT22;66872;63.142;14.482;2023-06-22T02:27:59;24.70;1.00
16532;DHT22;66872;63.142;14.482;2023-06-22T02:30:24;24.70;1.00
16532;DHT22;66872;63.142;14.482;2023-06-22T02:32:50;24.70;1.00
16532;DHT22;66872;63.142;14.482;2023-06-22T02:35:30;24.70;1.00
16532;DHT22;66872;63.142;14.482;2023-06-22T02:38:02;24.70;1.00
16532;DHT22;66872;63.142;14.482;2023-06-22T02:40:29;24.60;1.00
16532;DHT22;66872;63.142;14.482;2023-06-22T02:42:55;24.70;1.00
16532;DHT22;66872;63.142;14.482;2023-06-22T02:45:23;24.60;1.00
16532;DHT22;66872;63.142;14.482;2023-06-22T02:47:49;24.70;1.00
16532;DHT22;66872;63.142;14.482;2023-06-22T02:50:15;24.70;1.00
16532;DHT22;66872;63.142;14.482;2023-06-22T02:52:40;24.60;1.00
16532;DHT22;66872;63.142;14.482;2023-06-22T02:55:06;24.60;1.00
16532;DHT22;66872;63.142;14.482;2023-06-22T02:57:35;24.60;1.00
16532;DHT22;66872;63.142;14.482;2023-06-22T03:00:03;24.60;1.00
16532;DHT22;66872;63.142;14.482;2023-06-22T03:02:38;24.60;1.00
16532;DHT22;66872;63.142;14.482;2023-06-22T03:05:03;24.60;1.00
16532;DHT22;66872;63.142;14.482;2023-06-22T03:07:29;24.60;1.00
16532;DHT22;66872;63.142;14.482;2023-06-22T03:09:55;24.60;1.00
16532;DHT22;66872;63.142;14.482;2023-06-22T03:12:21;24.60;1.00
16532;DHT22;66872;63.142;14.482;2023-06-22T03:14:46;24.60;1.00
16532;DHT22;66872;63.142;14.482;2023-06-22T03:17:12;24.60;1.00
16532;DHT22;66872;63.142;14.482;2023-06-22T03:19:38;24.60;1.00
16532;DHT22;66872;63.142;14.482;2023-06-22T03:22:04;24.60;1.00
16532;DHT22;66872;63.142;14.482;2023-06-22T03:24:29;24.60;1.00
16532;DHT22;66872;63.142;14.482;2023-06-22T03:26:55;24.50;1.00
16532;DHT22;66872;63.142;14.482;2023-06-22T03:29:22;24.60;1.00
16532;DHT22;66872;63.142;14.482;2023-06-22T03:31:49;24.60;1.00
16532;DHT22;66872;63.142;14.482;2023-06-22T03:34:14;24.60;1.00
16532;DHT22;66872;63.142;14.482;2023-06-22T03:36:40;24.60;1.00
16532;DHT22;66872;63.142;14.482;2023-06-22T03:39:06;24.50;1.00
16532;DHT22;66872;63.142;14.482;2023-06-22T03:41:32;24.50;1.00
16532;DHT22;66872;63.142;14.482;2023-06-22T03:43:57;24.50;1.00
16532;DHT22;66872;63.142;14.482;2023-06-22T03:46:23;24.50;1.00
16532;DHT22;66872;63.142;14.482;2023-06-22T03:48:49;24.50;1.00
16532;DHT22;66872;63.142;14.482;2023-06-22T03:51:14;24.60;1.00
16532;DHT22;66872;63.142;14.482;2023-06-22T03:53:40;24.60;1.00
16532;DHT22;66872;63.142;14.482;2023-06-22T03:56:05;24.60;1.00
16532;DHT22;66872;63.142;14.482;2023-06-22T03:58:31;24.60;1.00
16532;DHT22;66872;63.142;14.482;2023-06-22T04:01:01;24.60;1.00
16532;DHT22;66872;63.142;14.482;2023-06-22T04:03:27;24.60;1.00
16532;DHT22;66872;63.142;14.482;2023-06-22T04:05:53;24.60;1.00
16532;DHT22;66872;63.142;14.482;2023-06-22T04:08:18;24.60;1.00
16532;DHT22;66872;63.142;14.482;2023-06-22T04:10:44;24.60;1.00
16532;DHT22;66872;63.142;14.482;2023-06-22T04:13:10;24.50;1.00
16532;DHT22;66872;63.142;14.482;2023-06-22T04:15:36;24.60;1.00
16532;DHT22;66872;63.142;14.482;2023-06-22T04:18:02;24.60;1.00
16532;DHT22;66872;63.142;14.482;2023-06-22T04:20:27;24.60;1.00
16532;DHT22;66872;63.142;14.482;2023-06-22T04:22:54;24.50;1.00
16532;DHT22;66872;63.142;14.482;2023-06-22T04:25:20;24.60;1.00
16532;DHT22;66872;63.142;14.482;2023-06-22T04:27:46;24.50;1.00
16532;DHT22;66872;63.142;14.482;2023-06-22T04:30:12;24.60;1.00
16532;DHT22;66872;63.142;14.482;2023-06-22T04:32:40;24.60;1.00
16532;DHT22;66872;63.142;14.482;2023-06-22T04:35:07;24.60;1.00
16532;DHT22;66872;63.142;14.482;2023-06-22T04:37:33;24.60;1.00
16532;DHT22;66872;63.142;14.482;2023-06-22T04:39:59;24.60;1.00
16532;DHT22;66872;63.142;14.482;2023-06-22T04:42:28;24.60;1.00
16532;DHT22;66872;63.142;14.482;2023-06-22T04:44:54;24.60;1.00
16532;DHT22;66872;63.142;14.482;2023-06-22T04:47:19;24.60;1.00
16532;DHT22;66872;63.142;14.482;2023-06-22T04:49:45;24.70;1.00
16532;DHT22;66872;63.142;14.482;2023-06-22T04:52:12;24.60;1.00
16532;DHT22;66872;63.142;14.482;2023-06-22T04:54:40;24.70;1.00
16532;DHT22;66872;63.142;14.482;2023-06-22T04:57:13;24.70;1.00
16532;DHT22;66872;63.142;14.482;2023-06-22T04:59:40;24.70;1.00
16532;DHT22;66872;63.142;14.482;2023-06-22T05:02:07;24.70;1.00
16532;DHT22;66872;63.142;14.482;2023-06-22T05:04:34;24.70;1.00
16532;DHT22;66872;63.142;14.482;2023-06-22T05:07:01;24.70;1.00
16532;DHT22;66872;63.142;14.482;2023-06-22T05:09:28;24.70;1.00
16532;DHT22;66872;63.142;14.482;2023-06-22T05:11:54;24.70;1.00
16532;DHT22;66872;63.142;14.482;2023-06-22T05:14:20;24.80;1.00
16532;DHT22;66872;63.142;14.482;2023-06-22T05:16:46;24.80;1.00
16532;DHT22;66872;63.142;14.482;2023-06-22T05:19:11;24.90;1.00
16532;DHT22;66872;63.142;14.482;2023-06-22T05:21:37;24.90;1.00
16532;DHT22;66872;63.142;14.482;2023-06-22T05:24:03;24.80;1.00
16532;DHT22;66872;63.142;14.482;2023-06-22T05:26:30;24.80;1.00
16532;DHT22;66872;63.142;14.482;2023-06-22T05:28:57;24.80;1.00
16532;DHT22;66872;63.142;14.482;2023-06-22T05:31:23;24.80;1.00
16532;DHT22;66872;63.142;14.482;2023-06-22T05:33:50;24.80;1.00
16532;DHT22;66872;63.142;14.482;2023-06-22T05:36:17;24.80;1.00
16532;DHT22;66872;63.142;14.482;2023-06-22T05:38:45;24.70;1.00
16532;DHT22;66872;63.142;14.482;2023-06-22T05:41:11;24.80;1.00
16532;DHT22;66872;63.142;14.482;2023-06-22T05:43:37;24.80;1.00
16532;DHT22;66872;63.142;14.482;2023-06-22T05:46:03;24.80;1.00
16532;DHT22;66872;63.142;14.482;2023-06-22T05:48:29;24.90;1.00
16532;DHT22;66872;63.142;14.482;2023-06-22T05:50:54;24.90;1.00
16532;DHT22;66872;63.142;14.482;2023-06-22T05:53:20;24.90;1.00
16532;DHT22;66872;63.142;14.482;2023-06-22T05:55:46;24.90;1.00
16532;DHT22;66872;63.142;14.482;2023-06-22T05:58:12;24.80;1.00
16532;DHT22;66872;63.142;14.482;2023-06-22T06:00:39;24.80;1.00
16532;DHT22;66872;63.142;14.482;2023-06-22T06:03:06;24.80;1.00
16532;DHT22;66872;63.142;14.482;2023-06-22T06:05:35;24.70;1.00
16532;DHT22;66872;63.142;14.482;2023-06-22T06:08:03;24.80;1.00
16532;DHT22;66872;63.142;14.482;2023-06-22T06:10:31;24.70;1.00
16532;DHT22;66872;63.142;14.482;2023-06-22T06:12:56;24.70;1.00
16532;DHT22;66872;63.142;14.482;2023-06-22T06:15:22;24.70;1.00
16532;DHT22;66872;63.142;14.482;2023-06-22T06:17:52;24.70;1.00
16532;DHT22;66872;63.142;14.482;2023-06-22T06:20:20;24.70;1.00
16532;DHT22;66872;63.142;14.482;2023-06-22T06:22:46;24.60;1.00
16532;DHT22;66872;63.142;14.482;2023-06-22T06:25:12;24.70;1.00
16532;DHT22;66872;63.142;14.482;2023-06-22T06:27:45;24.70;1.00
16532;DHT22;66872;63.142;14.482;2023-06-22T06:30:12;24.60;1.00
16532;DHT22;66872;63.142;14.482;2023-06-22T06:32:38;24.60;1.00
16532;DHT22;66872;63.142;14.482;2023-06-22T06:35:06;24.60;1.00
16532;DHT22;66872;63.142;14.482;2023-06-22T06:37:34;24.60;1.00
16532;DHT22;66872;63.142;14.482;2023-06-22T06:39:59;24.60;1.00
16532;DHT22;66872;63.142;14.482;2023-06-22T06:42:25;24.60;1.00
16532;DHT22;66872;63.142;14.482;2023-06-22T06:44:50;24.60;1.00
16532;DHT22;66872;63.142;14.482;2023-06-22T06:47:16;24.60;1.00
16532;DHT22;66872;63.142;14.482;2023-06-22T06:49:42;24.60;1.00
16532;DHT22;66872;63.142;14.482;2023-06-22T06:52:08;24.60;1.00
16532;DHT22;66872;63.142;14.482;2023-06-22T06:54:34;24.60;1.00
16532;DHT22;66872;63.142;14.482;2023-06-22T06:56:59;24.50;1.00
16532;DHT22;66872;63.142;14.482;2023-06-22T06:59:25;24.60;1.00
16532;DHT22;66872;63.142;14.482;2023-06-22T07:01:51;24.60;1.00
16532;DHT22;66872;63.142;14.482;2023-06-22T07:04:16;24.50;1.00
16532;DHT22;66872;63.142;14.482;2023-06-22T07:06:42;24.60;1.00
16532;DHT22;66872;63.142;14.482;2023-06-22T07:09:08;24.60;1.00
16532;DHT22;66872;63.142;14.482;2023-06-22T07:11:34;24.60;1.00
16532;DHT22;66872;63.142;14.482;2023-06-22T07:14:01;24.60;1.00
16532;DHT22;66872;63.142;14.482;2023-06-22T07:16:26;24.60;1.00
16532;DHT22;66872;63.142;14.482;2023-06-22T07:18:54;24.60;1.00
16532;DHT22;66872;63.142;14.482;2023-06-22T07:21:19;24.60;1.00
16532;DHT22;66872;63.142;14.482;2023-06-22T07:23:45;24.60;1.00
16532;DHT22;66872;63.142;14.482;2023-06-22T07:26:11;24.70;1.00
16532;DHT22;66872;63.142;14.482;2023-06-22T07:28:38;24.70;1.00
16532;DHT22;66872;63.142;14.482;2023-06-22T07:31:06;24.80;1.00
16532;DHT22;66872;63.142;14.482;2023-06-22T07:33:32;24.80;1.00
16532;DHT22;66872;63.142;14.482;2023-06-22T07:35:57;24.80;1.00
16532;DHT22;66872;63.142;14.482;2023-06-22T07:38:23;24.90;1.00
16532;DHT22;66872;63.142;14.482;2023-06-22T07:40:49;24.90;1.00
16532;DHT22;66872;63.142;14.482;2023-06-22T07:43:16;24.90;1.00
16532;DHT22;66872;63.142;14.482;2023-06-22T07:45:50;24.90;1.00
16532;DHT22;66872;63.142;14.482;2023-06-22T07:48:22;25.00;1.00
16532;DHT22;66872;63.142;14.482;2023-06-22T07:50:48;25.00;1.00
16532;DHT22;66872;63.142;14.482;2023-06-22T07:53:14;25.00;1.00
16532;DHT22;66872;63.142;14.482;2023-06-22T07:55:40;25.00;1.00
16532;DHT22;66872;63.142;14.482;2023-06-22T07:58:05;25.00;1.00
16532;DHT22;66872;63.142;14.482;2023-06-22T08:00:31;25.00;1.00
16532;DHT22;66872;63.142;14.482;2023-06-22T08:02:58;25.00;1.00
16532;DHT22;66872;63.142;14.482;2023-06-22T08:05:24;25.00;1.00
16532;DHT22;66872;63.142;14.482;2023-06-22T08:07:50;24.90;1.00
16532;DHT22;66872;63.142;14.482;2023-06-22T08:10:16;24.90;1.00
16532;DHT22;66872;63.142;14.482;2023-06-22T08:12:42;24.90;1.00
16532;DHT22;66872;63.142;14.482;2023-06-22T08:15:08;24.90;1.00
16532;DHT22;66872;63.142;14.482;2023-06-22T08:17:36;25.00;1.00
16532;DHT22;66872;63.142;14.482;2023-06-22T08:20:02;25.00;1.00
16532;DHT22;66872;63.142;14.482;2023-06-22T08:22:34;25.00;1.00
16532;DHT22;66872;63.142;14.482;2023-06-22T08:25:02;25.00;1.00
16532;DHT22;66872;63.142;14.482;2023-06-22T08:27:30;24.90;1.00
16532;DHT22;66872;63.142;14.482;2023-06-22T08:29:58;24.90;1.00
16532;DHT22;66872;63.142;14.482;2023-06-22T08:32:25;24.90;1.00
16532;DHT22;66872;63.142;14.482;2023-06-22T08:34:53;24.90;1.00
16532;DHT22;66872;63.142;14.482;2023-06-22T08:37:19;24.90;1.00
16532;DHT22;66872;63.142;14.482;2023-06-22T08:39:45;24.90;1.00
16532;DHT22;66872;63.142;14.482;2023-06-22T08:42:10;24.80;1.00
16532;DHT22;66872;63.142;14.482;2023-06-22T08:44:37;24.80;1.00
16532;DHT22;66872;63.142;14.482;2023-06-22T08:47:02;24.80;1.00
16532;DHT22;66872;63.142;14.482;2023-06-22T08:49:29;24.80;1.00
16532;DHT22;66872;63.142;14.482;2023-06-22T08:51:54;24.80;1.00
16532;DHT22;66872;63.142;14.482;2023-06-22T08:54:22;24.80;1.00
16532;DHT22;66872;63.142;14.482;2023-06-22T08:56:48;24.70;1.00
16532;DHT22;66872;63.142;14.482;2023-06-22T08:59:14;24.80;1.00
16532;DHT22;66872;63.142;14.482;2023-06-22T09:01:39;24.80;1.00
16532;DHT22;66872;63.142;14.482;2023-06-22T09:04:05;24.80;1.00
16532;DHT22;66872;63.142;14.482;2023-06-22T09:06:32;24.80;1.00
16532;DHT22;66872;63.142;14.482;2023-06-22T09:08:58;24.90;1.00
16532;DHT22;66872;63.142;14.482;2023-06-22T09:11:27;24.90;1.00
16532;DHT22;66872;63.142;14.482;2023-06-22T09:13:52;25.00;1.00
16532;DHT22;66872;63.142;14.482;2023-06-22T09:16:19;25.00;1.00
16532;DHT22;66872;63.142;14.482;2023-06-22T09:18:48;25.10;1.00
16532;DHT22;66872;63.142;14.482;2023-06-22T09:21:14;25.20;1.00
16532;DHT22;66872;63.142;14.482;2023-06-22T09:23:40;25.30;1.00
16532;DHT22;66872;63.142;14.482;2023-06-22T09:26:05;25.40;1.00
16532;DHT22;66872;63.142;14.482;2023-06-22T09:28:31;25.40;1.00
16532;DHT22;66872;63.142;14.482;2023-06-22T09:30:57;25.50;1.00
16532;DHT22;66872;63.142;14.482;2023-06-22T09:33:25;25.60;1.00
16532;DHT22;66872;63.142;14.482;2023-06-22T09:35:51;25.60;1.00
16532;DHT22;66872;63.142;14.482;2023-06-22T09:38:17;25.70;1.00
16532;DHT22;66872;63.142;14.482;2023-06-22T09:40:43;25.70;1.00
16532;DHT22;66872;63.142;14.482;2023-06-22T09:43:09;25.80;1.00
16532;DHT22;66872;63.142;14.482;2023-06-22T09:45:34;25.80;1.00
16532;DHT22;66872;63.142;14.482;2023-06-22T09:48:00;25.80;1.00
16532;DHT22;66872;63.142;14.482;2023-06-22T09:50:26;25.80;1.00
16532;DHT22;66872;63.142;14.482;2023-06-22T09:52:51;25.80;1.00
16532;DHT22;66872;63.142;14.482;2023-06-22T09:55:21;25.80;1.00
16532;DHT22;66872;63.142;14.482;2023-06-22T09:57:46;25.80;1.00
16532;DHT22;66872;63.142;14.482;2023-06-22T10:00:12;25.80;1.00
16532;DHT22;66872;63.142;14.482;2023-06-22T10:02:40;25.80;1.00
16532;DHT22;66872;63.142;14.482;2023-06-22T10:05:06;25.80;1.00
16532;DHT22;66872;63.142;14.482;2023-06-22T10:07:33;25.80;1.00
16532;DHT22;66872;63.142;14.482;2023-06-22T10:09:59;25.80;1.00
16532;DHT22;66872;63.142;14.482;2023-06-22T10:12:26;25.70;1.00
16532;DHT22;66872;63.142;14.482;2023-06-22T10:14:52;25.70;1.00
16532;DHT22;66872;63.142;14.482;2023-06-22T10:17:18;25.70;1.00
16532;DHT22;66872;63.142;14.482;2023-06-22T10:19:44;25.70;1.00
16532;DHT22;66872;63.142;14.482;2023-06-22T10:22:09;25.70;1.00
16532;DHT22;66872;63.142;14.482;2023-06-22T10:24:35;25.70;1.00
16532;DHT22;66872;63.142;14.482;2023-06-22T10:27:01;25.60;1.00
16532;DHT22;66872;63.142;14.482;2023-06-22T10:29:26;25.60;1.00
16532;DHT22;66872;63.142;14.482;2023-06-22T10:31:52;25.60;1.00
16532;DHT22;66872;63.142;14.482;2023-06-22T10:34:18;25.60;1.00
16532;DHT22;66872;63.142;14.482;2023-06-22T10:36:43;25.50;1.00
16532;DHT22;66872;63.142;14.482;2023-06-22T10:39:11;25.50;1.00
16532;DHT22;66872;63.142;14.482;2023-06-22T10:41:37;25.50;1.00
16532;DHT22;66872;63.142;14.482;2023-06-22T10:44:03;25.50;1.00
16532;DHT22;66872;63.142;14.482;2023-06-22T10:46:28;25.60;1.00
16532;DHT22;66872;63.142;14.482;2023-06-22T10:48:54;25.60;1.00
16532;DHT22;66872;63.142;14.482;2023-06-22T10:51:22;25.60;1.00
16532;DHT22;66872;63.142;14.482;2023-06-22T10:53:49;25.60;1.00
16532;DHT22;66872;63.142;14.482;2023-06-22T10:56:16;25.60;1.00
16532;DHT22;66872;63.142;14.482;2023-06-22T10:58:45;25.60;1.00
16532;DHT22;66872;63.142;14.482;2023-06-22T11:01:10;25.60;1.00
16532;DHT22;66872;63.142;14.482;2023-06-22T11:03:36;25.60;1.00
16532;DHT22;66872;63.142;14.482;2023-06-22T11:06:02;25.60;1.00
16532;DHT22;66872;63.142;14.482;2023-06-22T11:08:27;25.60;1.00
16532;DHT22;66872;63.142;14.482;2023-06-22T11:10:53;25.60;1.00
16532;DHT22;66872;63.142;14.482;2023-06-22T11:13:19;25.60;1.00
16532;DHT22;66872;63.142;14.482;2023-06-22T11:15:44;25.60;1.00
16532;DHT22;66872;63.142;14.482;2023-06-22T11:18:10;25.60;1.00
16532;DHT22;66872;63.142;14.482;2023-06-22T11:20:36;25.60;1.00
16532;DHT22;66872;63.142;14.482;2023-06-22T11:23:05;25.50;1.00
16532;DHT22;66872;63.142;14.482;2023-06-22T11:25:31;25.50;1.00
16532;DHT22;66872;63.142;14.482;2023-06-22T11:27:57;25.50;1.00
16532;DHT22;66872;63.142;14.482;2023-06-22T11:30:23;25.50;1.00
16532;DHT22;66872;63.142;14.482;2023-06-22T11:32:48;25.50;1.00
16532;DHT22;66872;63.142;14.482;2023-06-22T11:35:14;25.50;1.00
16532;DHT22;66872;63.142;14.482;2023-06-22T11:37:40;25.40;1.00
16532;DHT22;66872;63.142;14.482;2023-06-22T11:40:06;25.40;1.00
16532;DHT22;66872;63.142;14.482;2023-06-22T11:42:34;25.40;1.00
16532;DHT22;66872;63.142;14.482;2023-06-22T11:45:00;25.40;1.00
16532;DHT22;66872;63.142;14.482;2023-06-22T11:47:27;25.30;1.00
16532;DHT22;66872;63.142;14.482;2023-06-22T11:49:52;25.30;1.00
16532;DHT22;66872;63.142;14.482;2023-06-22T11:52:18;25.30;1.00
16532;DHT22;66872;63.142;14.482;2023-06-22T11:54:44;25.20;1.00
16532;DHT22;66872;63.142;14.482;2023-06-22T11:57:11;25.20;1.00
16532;DHT22;66872;63.142;14.482;2023-06-22T11:59:36;25.20;1.00
16532;DHT22;66872;63.142;14.482;2023-06-22T12:02:02;25.20;1.00
16532;DHT22;66872;63.142;14.482;2023-06-22T12:04:29;25.20;1.00
16532;DHT22;66872;63.142;14.482;2023-06-22T12:06:55;25.20;1.00
16532;DHT22;66872;63.142;14.482;2023-06-22T12:09:20;25.20;1.00
16532;DHT22;66872;63.142;14.482;2023-06-22T12:11:46;25.20;1.00
16532;DHT22;66872;63.142;14.482;2023-06-22T12:14:12;25.20;1.00
16532;DHT22;66872;63.142;14.482;2023-06-22T12:16:37;25.20;1.00
16532;DHT22;66872;63.142;14.482;2023-06-22T12:19:04;25.20;1.00
16532;DHT22;66872;63.142;14.482;2023-06-22T12:21:29;25.20;1.00
16532;DHT22;66872;63.142;14.482;2023-06-22T12:23:55;25.20;1.00
16532;DHT22;66872;63.142;14.482;2023-06-22T12:26:21;25.20;1.00
16532;DHT22;66872;63.142;14.482;2023-06-22T12:28:47;25.20;1.00
16532;DHT22;66872;63.142;14.482;2023-06-22T12:31:14;25.20;1.00
16532;DHT22;66872;63.142;14.482;2023-06-22T12:33:40;25.20;1.00
16532;DHT22;66872;63.142;14.482;2023-06-22T12:36:05;25.20;1.00
16532;DHT22;66872;63.142;14.482;2023-06-22T12:38:31;25.20;1.00
16532;DHT22;66872;63.142;14.482;2023-06-22T12:40:57;25.20;1.00
16532;DHT22;66872;63.142;14.482;2023-06-22T12:43:22;25.20;1.00
16532;DHT22;66872;63.142;14.482;2023-06-22T12:45:48;25.20;1.00
16532;DHT22;66872;63.142;14.482;2023-06-22T12:48:13;25.20;1.00
16532;DHT22;66872;63.142;14.482;2023-06-22T12:50:39;25.20;1.00
16532;DHT22;66872;63.142;14.482;2023-06-22T12:53:05;25.20;1.00
16532;DHT22;66872;63.142;14.482;2023-06-22T12:55:31;25.20;1.00
16532;DHT22;66872;63.142;14.482;2023-06-22T12:57:57;25.20;1.00
16532;DHT22;66872;63.142;14.482;2023-06-22T13:00:23;25.20;1.00
16532;DHT22;66872;63.142;14.482;2023-06-22T13:02:49;25.20;1.00
16532;DHT22;66872;63.142;14.482;2023-06-22T13:05:14;25.20;1.00
16532;DHT22;66872;63.142;14.482;2023-06-22T13:07:40;25.20;1.00
16532;DHT22;66872;63.142;14.482;2023-06-22T13:10:08;25.20;1.00
16532;DHT22;66872;63.142;14.482;2023-06-22T13:12:33;25.20;1.00
16532;DHT22;66872;63.142;14.482;2023-06-22T13:14:59;25.30;1.00
16532;DHT22;66872;63.142;14.482;2023-06-22T13:17:25;25.30;1.00
16532;DHT22;66872;63.142;14.482;2023-06-22T13:19:50;25.20;1.00
16532;DHT22;66872;63.142;14.482;2023-06-22T13:22:32;25.20;1.00
16532;DHT22;66872;63.142;14.482;2023-06-22T13:25:00;25.20;1.00
16532;DHT22;66872;63.142;14.482;2023-06-22T13:27:26;25.20;1.00
16532;DHT22;66872;63.142;14.482;2023-06-22T13:29:52;25.20;1.00
16532;DHT22;66872;63.142;14.482;2023-06-22T13:32:18;25.20;1.00
16532;DHT22;66872;63.142;14.482;2023-06-22T13:34:43;25.20;1.00
16532;DHT22;66872;63.142;14.482;2023-06-22T13:37:09;25.20;1.00
16532;DHT22;66872;63.142;14.482;2023-06-22T13:39:35;25.20;1.00
16532;DHT22;66872;63.142;14.482;2023-06-22T13:42:01;25.10;1.00
16532;DHT22;66872;63.142;14.482;2023-06-22T13:44:26;25.10;1.00
16532;DHT22;66872;63.142;14.482;2023-06-22T13:46:54;25.10;1.00
16532;DHT22;66872;63.142;14.482;2023-06-22T13:49:20;25.10;1.00
16532;DHT22;66872;63.142;14.482;2023-06-22T13:51:47;25.10;1.00
16532;DHT22;66872;63.142;14.482;2023-06-22T13:54:16;25.10;1.00
16532;DHT22;66872;63.142;14.482;2023-06-22T13:56:42;25.10;1.00
16532;DHT22;66872;63.142;14.482;2023-06-22T13:59:07;25.10;1.00
16532;DHT22;66872;63.142;14.482;2023-06-22T14:01:35;25.00;1.00
16532;DHT22;66872;63.142;14.482;2023-06-22T14:04:01;25.00;1.00
16532;DHT22;66872;63.142;14.482;2023-06-22T14:06:27;25.00;1.00
16532;DHT22;66872;63.142;14.482;2023-06-22T14:08:53;25.00;1.00
16532;DHT22;66872;63.142;14.482;2023-06-22T14:11:19;25.00;1.00
16532;DHT22;66872;63.142;14.482;2023-06-22T14:13:44;24.90;1.00
16532;DHT22;66872;63.142;14.482;2023-06-22T14:16:10;24.90;1.00
16532;DHT22;66872;63.142;14.482;2023-06-22T14:18:36;24.90;1.00
16532;DHT22;66872;63.142;14.482;2023-06-22T14:21:02;24.90;1.00
16532;DHT22;66872;63.142;14.482;2023-06-22T14:23:27;25.00;1.00
16532;DHT22;66872;63.142;14.482;2023-06-22T14:25:53;24.90;1.00
16532;DHT22;66872;63.142;14.482;2023-06-22T14:28:19;24.90;1.00
16532;DHT22;66872;63.142;14.482;2023-06-22T14:30:44;24.90;1.00
16532;DHT22;66872;63.142;14.482;2023-06-22T14:33:11;24.90;1.00
16532;DHT22;66872;63.142;14.482;2023-06-22T14:35:37;24.90;1.00
16532;DHT22;66872;63.142;14.482;2023-06-22T14:38:02;24.90;1.00
16532;DHT22;66872;63.142;14.482;2023-06-22T14:40:28;24.90;1.00
16532;DHT22;66872;63.142;14.482;2023-06-22T14:42:54;24.90;1.00
16532;DHT22;66872;63.142;14.482;2023-06-22T14:45:22;24.90;1.00
16532;DHT22;66872;63.142;14.482;2023-06-22T14:47:48;24.90;1.00
16532;DHT22;66872;63.142;14.482;2023-06-22T14:50:13;24.90;1.00
16532;DHT22;66872;63.142;14.482;2023-06-22T14:52:39;24.90;1.00
16532;DHT22;66872;63.142;14.482;2023-06-22T14:55:05;24.80;1.00
16532;DHT22;66872;63.142;14.482;2023-06-22T14:57:31;24.90;1.00
16532;DHT22;66872;63.142;14.482;2023-06-22T14:59:57;24.90;1.00
16532;DHT22;66872;63.142;14.482;2023-06-22T15:02:22;24.80;1.00
16532;DHT22;66872;63.142;14.482;2023-06-22T15:04:48;24.80;1.00
16532;DHT22;66872;63.142;14.482;2023-06-22T15:07:14;24.80;1.00
16532;DHT22;66872;63.142;14.482;2023-06-22T15:09:40;24.80;1.00
16532;DHT22;66872;63.142;14.482;2023-06-22T15:12:08;24.80;1.00
16532;DHT22;66872;63.142;14.482;2023-06-22T15:14:42;24.80;1.00
16532;DHT22;66872;63.142;14.482;2023-06-22T15:17:08;24.80;1.00
16532;DHT22;66872;63.142;14.482;2023-06-22T15:19:35;24.80;1.00
16532;DHT22;66872;63.142;14.482;2023-06-22T15:22:03;24.80;1.00
16532;DHT22;66872;63.142;14.482;2023-06-22T15:24:29;24.70;1.00
16532;DHT22;66872;63.142;14.482;2023-06-22T15:26:55;24.80;1.00
16532;DHT22;66872;63.142;14.482;2023-06-22T15:29:20;24.70;1.00
16532;DHT22;66872;63.142;14.482;2023-06-22T15:31:46;24.70;1.00